Time;durP1;ratioP1;P1;durP2;ratioP2;P2;SDS_P1;SDS_P2;PMS_P1;PMS_P2;Temp;Humidity;BMP_temperature;BMP_pressure;BME280_temperature;BME280_humidity;BME280_pressure;Samples;Min_cycle;Max_cycle;Signal;HPM_P1;HPM_P2
2022/02/06 00:00:09;;;;;;;0.30;0.30;;;3.40;96.30;;;;;;5033319;28;20470;-67
2022/02/06 00:02:37;;;;;;;0.30;0.30;;;3.50;96.10;;;;;;5033565;28;20177;-67
2022/02/06 00:05:04;;;;;;;0.30;0.30;;;3.50;96.10;;;;;;5033329;28;20270;-67
2022/02/06 00:07:30;;;;;;;0.30;0.30;;;3.60;95.90;;;;;;5033360;28;20615;-67
2022/02/06 00:09:57;;;;;;;0.30;0.30;;;3.70;95.80;;;;;;5033267;28;20180;-68
2022/02/06 00:12:23;;;;;;;0.30;0.30;;;3.70;95.80;;;;;;5033401;28;20192;-67
2022/02/06 00:14:48;;;;;;;0.30;0.30;;;3.70;95.60;;;;;;5033482;28;20193;-67
2022/02/06 00:17:14;;;;;;;0.40;0.40;;;3.80;95.50;;;;;;5033344;28;20569;-67
2022/02/06 00:19:42;;;;;;;0.40;0.40;;;3.70;95.40;;;;;;5033074;28;20170;-67
2022/02/06 00:22:11;;;;;;;0.32;0.32;;;3.60;95.40;;;;;;5033441;28;20197;-67
2022/02/06 00:24:44;;;;;;;0.30;0.30;;;3.40;95.40;;;;;;5033210;28;20559;-67
2022/02/06 00:27:22;;;;;;;0.40;0.40;;;3.40;95.70;;;;;;5033553;28;20276;-67
2022/02/06 00:29:55;;;;;;;0.32;0.32;;;3.50;95.60;;;;;;5033191;28;20182;-67
2022/02/06 00:32:31;;;;;;;0.30;0.30;;;3.60;95.60;;;;;;5033407;28;20185;-67
2022/02/06 00:40:37;;;;;;;0.30;0.30;;;3.70;95.30;;;;;;5033146;28;20649;-67
2022/02/06 00:43:02;;;;;;;0.30;0.30;;;3.60;95.20;;;;;;5033350;28;20184;-67
2022/02/06 00:45:28;;;;;;;0.30;0.30;;;3.40;95.60;;;;;;5033053;28;20193;-67
2022/02/06 00:47:54;;;;;;;0.30;0.30;;;3.50;95.80;;;;;;5031880;28;20170;-67
2022/02/06 00:50:20;;;;;;;0.30;0.30;;;3.50;95.80;;;;;;5032984;28;20823;-66
2022/02/06 00:53:00;;;;;;;0.30;0.30;;;3.60;95.90;;;;;;5033359;28;20241;-67
2022/02/06 00:55:25;;;;;;;0.30;0.30;;;3.60;95.50;;;;;;5033187;28;20198;-67
2022/02/06 00:57:51;;;;;;;0.30;0.30;;;3.70;95.70;;;;;;5033437;28;20178;-67
2022/02/06 01:00:17;;;;;;;0.30;0.30;;;3.70;95.60;;;;;;5032784;28;20551;-67
2022/02/06 01:02:42;;;;;;;0.30;0.30;;;3.80;95.60;;;;;;5033002;28;20174;-67
2022/02/06 01:05:08;;;;;;;0.30;0.30;;;3.80;95.50;;;;;;5032811;28;20183;-67
2022/02/06 01:07:33;;;;;;;0.33;0.33;;;3.90;95.40;;;;;;5033102;28;20178;-67
2022/02/06 01:09:59;;;;;;;0.30;0.30;;;3.90;95.70;;;;;;5036277;28;20425;-67
2022/02/06 01:12:29;;;;;;;0.30;0.30;;;4.00;95.20;;;;;;5036492;28;20665;-67
2022/02/06 01:18:03;;;;;;;0.40;0.40;;;3.90;95.20;;;;;;5013599;28;20186;-67
2022/02/06 01:20:34;;;;;;;0.40;0.40;;;4.10;95.20;;;;;;5036260;28;20191;-67
2022/02/06 01:23:08;;;;;;;0.30;0.30;;;4.00;95.00;;;;;;5036492;28;20294;-67
2022/02/06 01:25:41;;;;;;;0.30;0.30;;;3.90;95.00;;;;;;5036523;28;20541;-67
2022/02/06 01:28:12;;;;;;;0.30;0.30;;;4.00;95.10;;;;;;5036465;28;20175;-67
2022/02/06 01:33:13;;;;;;;0.30;0.30;;;3.80;95.30;;;;;;5036113;28;20244;-67
2022/02/06 01:35:49;;;;;;;0.40;0.40;;;3.80;95.30;;;;;;5036073;28;20278;-67
2022/02/06 01:40:55;;;;;;;0.30;0.30;;;3.70;95.60;;;;;;5036025;28;20197;-67
2022/02/06 01:43:26;;;;;;;0.40;0.40;;;3.80;95.50;;;;;;5036097;28;20171;-67
2022/02/06 02:47:18;;;;;;;0.40;0.40;;;4.20;95.00;;;;;;5034751;28;20599;-67
2022/02/06 02:49:58;;;;;;;0.30;0.30;;;4.20;95.10;;;;;;5034554;28;20554;-67
2022/02/06 02:52:42;;;;;;;0.30;0.30;;;4.20;95.10;;;;;;5034915;28;20181;-67
2022/02/06 02:57:53;;;;;;;0.30;0.30;;;4.00;95.40;;;;;;5034728;28;20189;-67
2022/02/06 03:02:58;;;;;;;0.30;0.30;;;4.10;95.30;;;;;;5034474;28;20201;-68
2022/02/06 03:05:25;;;;;;;0.30;0.30;;;4.00;95.40;;;;;;5034367;28;20186;-68
2022/02/06 03:07:52;;;;;;;0.30;0.30;;;4.10;95.60;;;;;;5034603;28;20198;-68
2022/02/06 03:10:18;;;;;;;0.30;0.30;;;4.10;95.50;;;;;;5034312;28;20258;-67
2022/02/06 03:12:49;;;;;;;0.30;0.30;;;4.10;95.60;;;;;;5034446;28;20261;-67
2022/02/06 03:15:31;;;;;;;0.40;0.40;;;4.10;95.60;;;;;;5034225;28;20195;-68
2022/02/06 03:18:01;;;;;;;0.40;0.40;;;4.10;95.50;;;;;;5034263;28;20181;-67
2022/02/06 03:20:28;;;;;;;0.40;0.40;;;4.10;95.70;;;;;;5033895;28;20195;-67
2022/02/06 03:22:55;;;;;;;0.30;0.30;;;4.30;95.80;;;;;;5034221;28;20171;-67
2022/02/06 03:25:22;;;;;;;0.35;0.35;;;4.40;95.50;;;;;;5034009;28;20190;-68
2022/02/06 03:27:50;;;;;;;0.30;0.30;;;4.30;95.40;;;;;;5033979;28;20170;-67
2022/02/06 03:30:16;;;;;;;0.40;0.40;;;4.30;95.60;;;;;;5033301;28;20177;-67
2022/02/06 03:32:42;;;;;;;0.40;0.40;;;4.30;95.70;;;;;;5033565;28;20633;-68
2022/02/06 03:35:08;;;;;;;0.30;0.30;;;4.10;95.80;;;;;;5034156;28;20198;-68
2022/02/06 03:37:35;;;;;;;0.40;0.40;;;4.20;96.10;;;;;;5034033;28;20206;-68
2022/02/06 03:40:04;;;;;;;0.33;0.33;;;4.20;95.90;;;;;;5032253;28;20211;-67
2022/02/06 03:42:41;;;;;;;0.40;0.40;;;4.20;96.00;;;;;;5033376;28;20423;-67
2022/02/06 03:45:09;;;;;;;0.30;0.30;;;4.10;95.90;;;;;;5033903;28;20208;-67
2022/02/06 03:47:49;;;;;;;0.30;0.30;;;3.90;96.30;;;;;;5033761;28;20208;-67
2022/02/06 03:50:16;;;;;;;0.30;0.30;;;4.00;96.70;;;;;;5033584;28;20188;-68
2022/02/06 03:52:47;;;;;;;0.30;0.30;;;4.00;96.50;;;;;;5033802;28;20654;-67
2022/02/06 03:55:19;;;;;;;0.30;0.30;;;4.00;96.50;;;;;;5032246;28;20216;-68
2022/02/06 03:57:46;;;;;;;0.30;0.30;;;3.90;96.50;;;;;;5033795;28;20621;-67
2022/02/06 04:00:13;;;;;;;0.40;0.40;;;3.90;96.70;;;;;;5033399;28;20217;-67
2022/02/06 04:02:38;;;;;;;0.30;0.30;;;4.00;96.90;;;;;;5033628;28;20167;-67
2022/02/06 04:05:04;;;;;;;0.30;0.30;;;4.10;96.90;;;;;;5033486;28;20733;-67
2022/02/06 04:07:30;;;;;;;0.30;0.30;;;4.10;96.70;;;;;;5033424;28;20170;-67
2022/02/06 04:09:57;;;;;;;0.30;0.30;;;4.10;96.70;;;;;;5033379;28;20174;-67
2022/02/06 04:12:24;;;;;;;0.35;0.35;;;4.00;96.80;;;;;;5032266;28;20201;-67
2022/02/06 04:14:59;;;;;;;0.30;0.30;;;3.90;97.10;;;;;;5033431;28;20558;-67
2022/02/06 04:17:35;;;;;;;0.40;0.40;;;4.00;97.20;;;;;;5033418;28;20155;-67
2022/02/06 04:20:01;;;;;;;0.35;0.35;;;4.00;97.00;;;;;;5033286;28;20565;-68
2022/02/06 04:22:26;;;;;;;0.40;0.40;;;4.00;96.90;;;;;;5033546;28;20170;-67
2022/02/06 04:24:52;;;;;;;0.40;0.40;;;3.90;96.80;;;;;;5033693;28;20274;-68
2022/02/06 04:27:18;;;;;;;0.30;0.30;;;3.80;97.20;;;;;;5033388;28;20165;-67
2022/02/06 04:29:44;;;;;;;0.40;0.40;;;3.70;97.30;;;;;;5033015;28;20169;-68
2022/02/06 04:32:10;;;;;;;0.40;0.40;;;3.80;97.30;;;;;;5033365;28;20175;-67
2022/02/06 04:34:36;;;;;;;0.40;0.40;;;3.90;97.40;;;;;;5033655;28;20563;-67
2022/02/06 04:39:57;;;;;;;0.32;0.32;;;3.90;96.90;;;;;;5033329;28;20180;-68
2022/02/06 04:52:59;;;;;;;0.30;0.30;;;4.00;97.00;;;;;;5037149;28;20694;-67
2022/02/06 05:14:28;;;;;;;0.30;0.30;;;4.20;96.70;;;;;;5036571;28;20174;-67
2022/02/06 05:22:26;;;;;;;0.30;0.30;;;4.00;97.00;;;;;;5036504;28;20558;-67
2022/02/06 05:32:39;;;;;;;0.30;0.30;;;4.30;96.50;;;;;;5036304;28;20176;-67
2022/02/06 05:35:07;;;;;;;0.30;0.30;;;4.40;96.20;;;;;;5036010;28;20251;-67
2022/02/06 05:37:33;;;;;;;0.30;0.30;;;4.40;96.00;;;;;;5035905;28;20166;-67
2022/02/06 05:39:58;;;;;;;0.30;0.30;;;4.50;95.90;;;;;;5035837;28;20206;-67
2022/02/06 05:42:24;;;;;;;0.40;0.40;;;4.40;95.80;;;;;;5036135;28;20181;-68
2022/02/06 05:44:55;;;;;;;0.30;0.30;;;4.50;95.70;;;;;;5034670;28;20187;-67
2022/02/06 05:47:25;;;;;;;0.40;0.40;;;4.60;95.70;;;;;;5035891;28;20398;-67
2022/02/06 05:49:52;;;;;;;0.52;0.52;;;4.60;95.50;;;;;;5035696;28;20167;-67
2022/02/06 05:52:19;;;;;;;0.68;0.68;;;4.50;95.20;;;;;;5035870;28;20166;-67
2022/02/06 05:54:45;;;;;;;0.30;0.30;;;4.60;95.20;;;;;;5035101;28;20194;-67
2022/02/06 05:57:11;;;;;;;0.30;0.30;;;4.70;95.20;;;;;;5035750;28;20178;-67
2022/02/06 05:59:36;;;;;;;0.33;0.33;;;4.60;94.90;;;;;;5035407;28;20410;-67
2022/02/06 06:02:03;;;;;;;0.30;0.30;;;4.50;95.10;;;;;;5035593;28;20205;-67
2022/02/06 06:04:28;;;;;;;0.30;0.30;;;4.50;95.20;;;;;;5035638;28;20942;-68
2022/02/06 06:06:54;;;;;;;0.30;0.30;;;4.60;95.00;;;;;;5035554;28;20186;-67
2022/02/06 06:09:20;;;;;;;0.40;0.40;;;4.60;94.90;;;;;;5035363;28;20277;-68
2022/02/06 06:11:45;;;;;;;0.30;0.30;;;4.60;94.90;;;;;;5035633;28;20312;-67
2022/02/06 06:14:11;;;;;;;0.30;0.30;;;4.60;94.80;;;;;;5035481;28;20269;-67
2022/02/06 06:16:37;;;;;;;0.33;0.33;;;4.30;94.70;;;;;;5035380;28;20537;-67
2022/02/06 06:19:04;;;;;;;0.30;0.30;;;4.30;95.00;;;;;;5035234;28;20175;-67
2022/02/06 06:21:35;;;;;;;0.30;0.30;;;4.40;95.00;;;;;;5035272;28;20215;-67
2022/02/06 06:24:01;;;;;;;0.30;0.30;;;4.40;94.80;;;;;;5035418;28;20170;-67
2022/02/06 06:26:30;;;;;;;0.37;0.37;;;4.20;95.00;;;;;;5035178;28;20186;-68
2022/02/06 06:28:55;;;;;;;0.40;0.40;;;4.30;95.20;;;;;;5035094;28;20178;-67
2022/02/06 06:31:21;;;;;;;0.30;0.30;;;4.40;95.10;;;;;;5035177;28;20557;-67
2022/02/06 06:33:47;;;;;;;0.40;0.40;;;4.40;94.80;;;;;;5035090;28;20186;-67
2022/02/06 06:36:13;;;;;;;0.30;0.30;;;4.50;94.80;;;;;;5034958;28;20167;-67
2022/02/06 06:38:39;;;;;;;0.40;0.40;;;4.60;94.70;;;;;;5034857;28;20424;-67
2022/02/06 06:41:05;;;;;;;0.30;0.30;;;4.60;94.40;;;;;;5035009;28;20186;-67
2022/02/06 06:43:31;;;;;;;0.30;0.30;;;4.70;94.20;;;;;;5034995;28;20167;-67
2022/02/06 06:45:57;;;;;;;0.38;0.38;;;4.50;94.10;;;;;;5034663;28;20256;-67
2022/02/06 06:48:23;;;;;;;0.32;0.32;;;4.40;94.60;;;;;;5034949;28;20525;-68
2022/02/06 06:50:49;;;;;;;0.40;0.40;;;4.40;94.60;;;;;;5035011;28;20194;-67
2022/02/06 06:53:15;;;;;;;0.30;0.30;;;4.50;94.80;;;;;;5034823;28;20755;-68
2022/02/06 06:55:47;;;;;;;0.30;0.30;;;4.50;94.50;;;;;;5034780;28;20480;-67
2022/02/06 06:58:23;;;;;;;0.30;0.30;;;4.50;94.70;;;;;;5034396;28;20386;-67
2022/02/06 07:01:20;;;;;;;0.30;0.30;;;4.50;94.90;;;;;;5034545;28;20700;-67
2022/02/06 07:03:43;;;;;;;0.30;0.30;;;4.60;94.90;;;;;;5034435;28;20183;-68
2022/02/06 07:06:08;;;;;;;0.40;0.40;;;4.50;95.00;;;;;;5033280;28;20245;-67
2022/02/06 07:08:34;;;;;;;1.57;1.47;;;4.50;95.00;;;;;;5034425;28;20167;-67
2022/02/06 07:11:00;;;;;;;0.40;0.40;;;4.50;95.00;;;;;;5034355;28;20175;-67
2022/02/06 07:13:25;;;;;;;0.30;0.30;;;4.50;95.10;;;;;;5034299;28;20174;-67
2022/02/06 07:15:53;;;;;;;0.40;0.40;;;4.50;95.30;;;;;;5032906;28;20210;-67
2022/02/06 07:18:19;;;;;;;0.30;0.30;;;4.50;95.10;;;;;;5034098;28;20185;-68
2022/02/06 07:20:45;;;;;;;0.30;0.30;;;4.30;95.30;;;;;;5032861;28;20537;-68
2022/02/06 07:23:11;;;;;;;0.30;0.30;;;4.30;95.50;;;;;;5032971;28;20189;-67
2022/02/06 07:25:39;;;;;;;0.40;0.40;;;4.30;95.70;;;;;;5032669;28;20195;-67
2022/02/06 07:28:07;;;;;;;0.30;0.30;;;4.30;95.60;;;;;;5034053;28;20178;-67
2022/02/06 07:30:33;;;;;;;0.40;0.40;;;4.10;95.70;;;;;;5032671;28;20183;-67
2022/02/06 07:32:59;;;;;;;0.30;0.30;;;4.10;96.10;;;;;;5033942;28;20182;-67
2022/02/06 07:35:24;;;;;;;0.40;0.40;;;4.10;96.20;;;;;;5033887;28;20193;-67
2022/02/06 07:37:55;;;;;;;0.37;0.37;;;4.20;96.30;;;;;;5034058;28;20181;-67
2022/02/06 07:40:21;;;;;;;0.40;0.40;;;4.20;96.10;;;;;;5033714;28;20197;-67
2022/02/06 07:42:47;;;;;;;0.40;0.40;;;4.30;96.10;;;;;;5033821;28;20256;-68
2022/02/06 07:45:14;;;;;;;0.30;0.30;;;4.40;96.00;;;;;;5033773;28;20586;-67
2022/02/06 07:47:42;;;;;;;0.30;0.30;;;4.60;95.80;;;;;;5033923;28;20167;-67
2022/02/06 07:50:10;;;;;;;0.30;0.30;;;4.40;95.30;;;;;;5033488;28;20515;-67
2022/02/06 07:52:35;;;;;;;0.30;0.30;;;4.50;95.60;;;;;;5033525;28;20191;-67
2022/02/06 07:55:03;;;;;;;0.40;0.40;;;4.50;95.60;;;;;;5033558;28;20560;-67
2022/02/06 07:57:29;;;;;;;0.30;0.30;;;4.60;95.40;;;;;;5033836;28;20175;-67
2022/02/06 07:59:55;;;;;;;0.40;0.40;;;4.70;95.20;;;;;;5033458;28;20667;-68
2022/02/06 08:02:20;;;;;;;0.30;0.30;;;4.70;95.00;;;;;;5033482;28;20640;-68
2022/02/06 08:04:48;;;;;;;0.40;0.40;;;4.80;95.10;;;;;;5033564;28;20248;-67
2022/02/06 08:07:15;;;;;;;0.30;0.30;;;4.80;95.00;;;;;;5033480;28;20213;-68
2022/02/06 08:12:16;;;;;;;0.30;0.30;;;4.50;94.90;;;;;;5033617;28;20208;-68
2022/02/06 08:17:16;;;;;;;0.30;0.30;;;4.60;94.70;;;;;;5034672;28;20435;-67
2022/02/06 08:19:44;;;;;;;0.35;0.35;;;4.60;94.80;;;;;;5037411;28;20170;-67
2022/02/06 08:22:10;;;;;;;0.38;0.38;;;4.80;94.60;;;;;;5037556;28;20170;-67
2022/02/06 08:24:36;;;;;;;0.30;0.30;;;4.90;94.40;;;;;;5037384;28;20183;-67
2022/02/06 08:27:02;;;;;;;0.30;0.30;;;4.90;94.10;;;;;;5037547;28;20602;-67
2022/02/06 08:29:28;;;;;;;0.30;0.30;;;4.90;93.80;;;;;;5037215;28;20181;-68
2022/02/06 08:31:53;;;;;;;0.30;0.30;;;4.90;93.90;;;;;;5037483;28;20253;-67
2022/02/06 08:34:19;;;;;;;0.33;0.33;;;5.10;93.80;;;;;;5037046;28;20206;-68
2022/02/06 08:36:45;;;;;;;0.30;0.30;;;5.10;93.40;;;;;;5037534;28;20174;-68
2022/02/06 08:39:11;;;;;;;0.30;0.30;;;4.90;93.50;;;;;;5037122;28;20178;-67
2022/02/06 08:41:36;;;;;;;0.33;0.33;;;4.80;93.80;;;;;;5037203;28;20668;-68
2022/02/06 08:44:03;;;;;;;0.40;0.40;;;4.90;93.80;;;;;;5037244;28;20163;-68
2022/02/06 08:46:29;;;;;;;0.38;0.38;;;5.00;93.60;;;;;;5037254;28;20302;-67
2022/02/06 08:48:55;;;;;;;0.40;0.40;;;4.90;93.20;;;;;;5036846;28;20182;-68
2022/02/06 08:51:21;;;;;;;0.40;0.40;;;4.90;93.30;;;;;;5037005;28;20196;-67
2022/02/06 08:53:47;;;;;;;0.35;0.35;;;5.10;93.50;;;;;;5036911;28;20174;-68
2022/02/06 08:56:13;;;;;;;0.40;0.40;;;5.40;93.40;;;;;;5036895;28;20182;-68
2022/02/06 08:58:39;;;;;;;0.30;0.30;;;5.50;93.10;;;;;;5036666;28;20183;-68
2022/02/06 09:01:05;;;;;;;0.40;0.40;;;5.30;92.70;;;;;;5036785;28;20563;-67
2022/02/06 09:03:30;;;;;;;0.40;0.40;;;5.30;92.80;;;;;;5036573;28;20171;-68
2022/02/06 09:05:56;;;;;;;0.40;0.40;;;5.20;92.60;;;;;;5036550;28;20594;-68
2022/02/06 09:08:21;;;;;;;0.30;0.30;;;5.30;92.80;;;;;;5036577;28;20250;-68
2022/02/06 09:10:48;;;;;;;0.40;0.40;;;5.30;92.60;;;;;;5036660;28;20199;-67
2022/02/06 09:13:14;;;;;;;0.40;0.40;;;5.40;92.80;;;;;;5036702;28;20167;-67
2022/02/06 09:15:40;;;;;;;0.30;0.30;;;5.40;92.30;;;;;;5036638;28;20206;-68
2022/02/06 09:18:06;;;;;;;0.40;0.40;;;5.30;92.10;;;;;;5036499;28;20174;-67
2022/02/06 09:20:32;;;;;;;0.40;0.40;;;5.50;92.10;;;;;;5036136;28;20201;-68
2022/02/06 09:23:02;;;;;;;0.30;0.30;;;5.60;92.10;;;;;;5036586;28;20166;-68
2022/02/06 09:25:28;;;;;;;0.40;0.40;;;5.60;91.90;;;;;;5036222;28;20191;-67
2022/02/06 09:27:53;;;;;;;0.40;0.40;;;5.70;91.90;;;;;;5035968;28;20580;-67
2022/02/06 09:30:25;;;;;;;0.40;0.40;;;5.40;91.50;;;;;;5035150;28;20421;-68
2022/02/06 09:35:17;;;;;;;0.40;0.40;;;5.20;92.20;;;;;;5036403;28;20199;-67
2022/02/06 09:37:43;;;;;;;0.40;0.40;;;5.00;92.30;;;;;;5036209;28;20224;-68
2022/02/06 09:40:12;;;;;;;0.50;0.50;;;5.20;92.60;;;;;;5035877;28;20239;-68
2022/02/06 09:42:38;;;;;;;0.40;0.40;;;5.10;92.40;;;;;;5036200;28;20402;-67
2022/02/06 09:45:05;;;;;;;0.40;0.40;;;5.00;92.40;;;;;;5035947;28;20611;-67
2022/02/06 09:47:32;;;;;;;0.40;0.40;;;5.30;92.70;;;;;;5034656;28;20258;-68
2022/02/06 09:49:58;;;;;;;0.40;0.40;;;5.70;92.50;;;;;;5035858;28;20186;-68
2022/02/06 09:52:25;;;;;;;0.40;0.40;;;5.70;91.80;;;;;;5035805;28;20194;-68
2022/02/06 09:54:56;;;;;;;0.40;0.40;;;5.60;91.70;;;;;;5035756;28;20718;-67
2022/02/06 09:57:27;;;;;;;0.40;0.40;;;5.40;92.10;;;;;;5035731;28;20177;-68
2022/02/06 09:59:54;;;;;;;0.40;0.40;;;5.50;92.10;;;;;;5035554;28;20175;-68
2022/02/06 10:02:31;;;;;;;0.40;0.40;;;5.70;92.10;;;;;;5035835;28;20179;-68
2022/02/06 10:04:58;;;;;;;0.40;0.40;;;5.80;92.10;;;;;;5035628;28;20277;-67
2022/02/06 10:07:36;;;;;;;0.40;0.40;;;5.80;91.60;;;;;;5035777;28;20557;-68
2022/02/06 10:10:05;;;;;;;0.30;0.30;;;5.60;91.80;;;;;;5035405;28;20170;-68
2022/02/06 10:12:43;;;;;;;0.40;0.40;;;5.60;92.20;;;;;;5035374;28;20545;-67
2022/02/06 10:15:15;;;;;;;0.40;0.40;;;5.60;92.20;;;;;;5035284;28;20273;-68
2022/02/06 10:17:41;;;;;;;1.08;0.98;;;5.80;92.20;;;;;;5035411;28;20183;-68
2022/02/06 10:20:23;;;;;;;0.30;0.30;;;5.80;91.90;;;;;;5034974;28;20199;-68
2022/02/06 10:22:56;;;;;;;0.35;0.35;;;5.80;92.00;;;;;;5035189;28;20192;-68
2022/02/06 10:25:22;;;;;;;0.40;0.40;;;5.70;92.00;;;;;;5035149;28;20191;-67
2022/02/06 10:27:59;;;;;;;0.30;0.30;;;5.80;92.00;;;;;;5034742;28;20182;-68
2022/02/06 10:30:38;;;;;;;0.40;0.40;;;5.60;91.90;;;;;;5034840;28;20455;-67
2022/02/06 10:33:13;;;;;;;0.40;0.40;;;5.80;92.10;;;;;;5034980;28;20190;-68
2022/02/06 10:35:50;;;;;;;0.40;0.40;;;5.90;92.00;;;;;;5034861;28;20190;-68
2022/02/06 10:38:23;;;;;;;0.30;0.30;;;5.80;91.80;;;;;;5034978;28;20166;-67
2022/02/06 10:41:27;;;;;;;0.38;0.38;;;5.90;92.00;;;;;;5034744;28;20614;-67
2022/02/06 10:43:58;;;;;;;0.40;0.40;;;5.90;92.00;;;;;;5013114;28;20230;-68
2022/02/06 10:46:27;;;;;;;0.40;0.40;;;6.10;92.10;;;;;;4996519;28;20266;-67
2022/02/06 10:49:02;;;;;;;0.30;0.30;;;6.10;91.80;;;;;;5024291;28;20536;-67
2022/02/06 10:51:42;;;;;;;0.40;0.40;;;6.20;91.80;;;;;;5035006;28;20154;-68
2022/02/06 10:54:14;;;;;;;0.40;0.40;;;6.10;91.80;;;;;;5034652;28;20222;-67
2022/02/06 10:57:02;;;;;;;0.40;0.40;;;6.10;91.90;;;;;;5034728;28;20155;-67
2022/02/06 10:59:35;;;;;;;0.40;0.40;;;6.20;92.10;;;;;;5034372;28;20181;-67
2022/02/06 11:02:06;;;;;;;0.40;0.40;;;6.30;91.90;;;;;;5034627;28;20225;-67
2022/02/06 11:04:33;;;;;;;0.40;0.40;;;6.20;91.60;;;;;;5034378;28;20564;-67
2022/02/06 11:07:18;;;;;;;0.35;0.35;;;6.20;91.90;;;;;;5034676;28;20207;-67
2022/02/06 11:09:45;;;;;;;0.40;0.40;;;6.30;91.80;;;;;;5034265;28;20620;-67
2022/02/06 11:12:22;;;;;;;0.40;0.40;;;6.30;91.80;;;;;;5034345;28;20261;-67
2022/02/06 11:14:59;;;;;;;0.30;0.30;;;6.20;91.60;;;;;;5032911;28;20221;-68
2022/02/06 11:17:27;;;;;;;0.30;0.30;;;6.10;91.90;;;;;;5034382;28;20540;-67
2022/02/06 11:20:03;;;;;;;0.40;0.40;;;6.30;91.90;;;;;;5034097;28;20174;-67
2022/02/06 11:22:30;;;;;;;0.40;0.40;;;6.50;91.70;;;;;;5034253;28;20170;-67
2022/02/06 11:24:56;;;;;;;0.30;0.30;;;6.70;91.30;;;;;;5034170;28;20186;-68
2022/02/06 11:27:22;;;;;;;0.30;0.30;;;6.70;91.10;;;;;;5034044;28;20170;-68
2022/02/06 11:29:48;;;;;;;0.40;0.40;;;6.80;91.10;;;;;;5032623;28;20187;-68
2022/02/06 11:32:14;;;;;;;0.40;0.40;;;6.80;90.70;;;;;;5033886;28;20176;-68
2022/02/06 11:34:43;;;;;;;0.40;0.40;;;6.90;90.60;;;;;;5033943;28;20529;-67
2022/02/06 11:45:57;;;;;;;0.40;0.40;;;6.50;91.00;;;;;;5033903;28;20198;-67
2022/02/06 11:48:29;;;;;;;0.40;0.40;;;6.20;91.40;;;;;;5033700;28;20177;-67
2022/02/06 11:50:55;;;;;;;0.30;0.30;;;6.30;91.50;;;;;;5033906;28;20167;-66
2022/02/06 11:53:42;;;;;;;0.40;0.40;;;6.20;91.40;;;;;;5033304;28;20250;-67
2022/02/06 11:56:35;;;;;;;0.40;0.40;;;6.30;91.70;;;;;;5033775;28;20281;-67
2022/02/06 11:59:11;;;;;;;0.40;0.40;;;6.20;91.70;;;;;;5033425;28;20229;-67
2022/02/06 12:01:36;;;;;;;0.40;0.40;;;6.30;91.80;;;;;;5033705;28;20289;-67
2022/02/06 12:04:19;;;;;;;0.40;0.40;;;6.30;91.60;;;;;;5033673;28;20262;-66
2022/02/06 12:06:48;;;;;;;0.40;0.40;;;6.10;91.80;;;;;;5033518;28;20177;-67
2022/02/06 12:09:16;;;;;;;0.40;0.40;;;6.00;92.00;;;;;;5033370;28;20202;-67
2022/02/06 12:12:04;;;;;;;0.40;0.40;;;5.90;92.40;;;;;;5033390;28;20198;-67
2022/02/06 12:14:36;;;;;;;0.32;0.32;;;5.80;92.50;;;;;;5033314;28;20198;-66
2022/02/06 12:17:18;;;;;;;0.30;0.30;;;5.80;92.70;;;;;;5032182;28;20644;-67
2022/02/06 12:20:00;;;;;;;0.40;0.40;;;5.90;92.70;;;;;;5033314;28;20220;-67
2022/02/06 12:22:28;;;;;;;0.40;0.40;;;6.10;92.80;;;;;;5033360;28;20179;-66
2022/02/06 12:25:36;;;;;;;0.40;0.40;;;6.20;92.30;;;;;;5033381;28;20182;-67
2022/02/06 12:28:11;;;;;;;0.40;0.40;;;6.20;92.20;;;;;;5033531;28;20300;-67
2022/02/06 12:30:40;;;;;;;0.40;0.40;;;6.40;92.20;;;;;;5033334;28;20176;-67
2022/02/06 12:33:31;;;;;;;0.40;0.40;;;6.50;91.90;;;;;;5033063;28;20187;-67
2022/02/06 12:38:44;;;;;;;0.30;0.30;;;6.70;91.70;;;;;;5033228;28;20231;-67
2022/02/06 12:41:24;;;;;;;0.40;0.40;;;6.70;91.50;;;;;;5033248;28;20187;-67
2022/02/06 12:43:55;;;;;;;0.40;0.40;;;6.60;91.50;;;;;;5033282;28;20178;-67
2022/02/06 12:46:26;;;;;;;0.40;0.40;;;6.50;91.60;;;;;;5033353;28;20155;-67
2022/02/06 12:48:59;;;;;;;0.73;0.73;;;6.60;91.90;;;;;;5032908;28;20172;-67
2022/02/06 12:51:30;;;;;;;0.40;0.40;;;6.50;91.60;;;;;;5033213;28;20175;-67
2022/02/06 12:54:01;;;;;;;0.40;0.40;;;6.40;91.50;;;;;;5033175;28;20175;-67
2022/02/06 12:56:29;;;;;;;0.40;0.40;;;6.40;91.70;;;;;;5033022;28;20603;-67
2022/02/06 12:58:55;;;;;;;0.40;0.40;;;6.50;92.00;;;;;;5032807;28;20178;-67
2022/02/06 13:01:42;;;;;;;0.40;0.40;;;6.30;92.00;;;;;;5032928;28;20201;-67
2022/02/06 13:04:10;;;;;;;0.40;0.40;;;6.30;92.00;;;;;;5035659;28;20266;-67
2022/02/06 13:06:40;;;;;;;0.40;0.40;;;6.60;92.20;;;;;;5036692;28;20610;-67
2022/02/06 13:09:15;;;;;;;0.40;0.40;;;6.70;92.20;;;;;;5036435;28;20700;-67
2022/02/06 13:11:47;;;;;;;0.40;0.40;;;6.60;92.10;;;;;;5036840;28;20224;-67
2022/02/06 13:14:27;;;;;;;0.30;0.30;;;6.70;92.00;;;;;;5036498;28;20202;-67
2022/02/06 13:17:14;;;;;;;0.40;0.40;;;6.50;92.10;;;;;;5036549;28;20151;-67
2022/02/06 13:25:33;;;;;;;0.40;0.40;;;5.70;93.40;;;;;;5036498;28;20197;-67
2022/02/06 13:30:51;;;;;;;0.40;0.40;;;5.50;94.50;;;;;;5036215;28;20274;-67
2022/02/06 13:39:03;;;;;;;0.40;0.40;;;5.50;95.50;;;;;;5036113;28;20174;-67
2022/02/06 13:41:32;;;;;;;0.40;0.40;;;5.60;95.50;;;;;;5036209;28;20314;-67
2022/02/06 13:44:02;;;;;;;0.40;0.40;;;5.30;95.30;;;;;;5036148;28;20209;-67
2022/02/06 13:46:33;;;;;;;0.30;0.30;;;5.40;95.40;;;;;;5036194;28;20167;-67
2022/02/06 13:49:01;;;;;;;0.40;0.40;;;5.40;95.20;;;;;;5036009;28;20249;-67
2022/02/06 13:51:43;;;;;;;0.40;0.40;;;5.30;95.50;;;;;;5036237;28;20185;-67
2022/02/06 13:54:10;;;;;;;0.40;0.40;;;5.60;95.60;;;;;;5035992;28;20252;-67
2022/02/06 13:56:36;;;;;;;0.40;0.40;;;5.40;95.00;;;;;;5035660;28;20183;-67
2022/02/06 13:59:03;;;;;;;0.40;0.40;;;5.20;95.40;;;;;;5035587;28;20224;-67
2022/02/06 14:01:39;;;;;;;0.40;0.40;;;5.10;95.80;;;;;;5035633;28;20194;-67
2022/02/06 14:04:26;;;;;;;0.40;0.40;;;5.20;96.10;;;;;;5035779;28;20232;-67
2022/02/06 14:07:12;;;;;;;0.40;0.40;;;5.10;96.10;;;;;;5035858;28;20162;-67
2022/02/06 14:12:09;;;;;;;0.40;0.40;;;5.10;96.70;;;;;;5035645;28;20182;-67
2022/02/06 14:14:54;;;;;;;0.30;0.30;;;5.00;96.40;;;;;;5034830;28;20195;-67
2022/02/06 14:17:28;;;;;;;0.40;0.40;;;5.10;96.40;;;;;;5035454;28;20152;-67
2022/02/06 14:19:56;;;;;;;0.40;0.40;;;4.90;96.80;;;;;;5035231;28;20167;-67
2022/02/06 14:22:34;;;;;;;0.40;0.40;;;4.80;96.90;;;;;;5035334;28;20163;-67
2022/02/06 14:25:08;;;;;;;0.40;0.40;;;5.20;97.10;;;;;;5035469;28;20191;-67
2022/02/06 14:27:38;;;;;;;0.30;0.30;;;5.40;97.10;;;;;;5035196;28;20170;-67
2022/02/06 14:30:13;;;;;;;0.40;0.40;;;5.40;96.60;;;;;;5034601;28;20629;-67
2022/02/06 14:33:11;;;;;;;0.40;0.40;;;5.50;96.60;;;;;;5034956;28;20167;-67
2022/02/06 14:35:53;;;;;;;0.40;0.40;;;5.50;96.40;;;;;;5030981;28;20228;-67
2022/02/06 14:38:36;;;;;;;0.40;0.40;;;5.50;96.50;;;;;;5035018;28;20246;-67
2022/02/06 14:43:57;;;;;;;0.30;0.30;;;5.50;96.50;;;;;;5034935;28;20178;-67
2022/02/06 14:46:25;;;;;;;0.40;0.40;;;5.50;96.60;;;;;;5034820;28;20607;-67
2022/02/06 14:48:50;;;;;;;0.30;0.30;;;5.50;97.10;;;;;;5034803;28;20652;-67
2022/02/06 14:51:18;;;;;;;0.40;0.40;;;5.40;97.30;;;;;;5034780;28;20183;-67
2022/02/06 14:53:44;;;;;;;0.40;0.40;;;5.20;97.90;;;;;;5034718;28;20186;-67
2022/02/06 14:56:12;;;;;;;0.40;0.40;;;5.10;98.40;;;;;;5034596;28;20198;-67
2022/02/06 14:58:38;;;;;;;0.30;0.30;;;5.00;98.80;;;;;;5033287;28;20201;-67
2022/02/06 15:01:03;;;;;;;0.40;0.40;;;5.00;99.00;;;;;;5034674;28;20203;-67
2022/02/06 15:03:29;;;;;;;0.30;0.30;;;4.80;99.10;;;;;;5034631;28;20167;-67
2022/02/06 15:05:55;;;;;;;0.30;0.30;;;4.70;99.60;;;;;;5034333;28;20436;-67
2022/02/06 15:08:21;;;;;;;0.30;0.30;;;4.60;99.80;;;;;;5034232;28;20527;-67
2022/02/06 15:10:48;;;;;;;0.37;0.37;;;4.80;99.90;;;;;;5034292;28;20201;-67
2022/02/06 15:13:14;;;;;;;0.32;0.32;;;4.90;99.90;;;;;;5034436;28;20444;-67
2022/02/06 15:15:58;;;;;;;0.40;0.40;;;4.90;99.80;;;;;;5034157;28;20620;-67
2022/02/06 15:18:35;;;;;;;0.30;0.30;;;4.60;99.90;;;;;;5034120;28;20412;-66
2022/02/06 15:21:00;;;;;;;0.40;0.40;;;4.60;99.90;;;;;;5034373;28;20213;-67
2022/02/06 15:23:26;;;;;;;0.40;0.40;;;4.60;99.90;;;;;;5034307;28;20170;-67
2022/02/06 15:25:56;;;;;;;0.30;0.30;;;4.70;99.90;;;;;;5033862;28;20421;-67
2022/02/06 15:28:23;;;;;;;0.40;0.40;;;4.60;99.90;;;;;;5033365;28;20201;-67
2022/02/06 15:30:49;;;;;;;0.40;0.40;;;4.40;99.90;;;;;;5033968;28;20175;-67
2022/02/06 15:33:15;;;;;;;0.33;0.33;;;4.30;99.90;;;;;;5033754;28;20194;-67
2022/02/06 15:35:42;;;;;;;0.30;0.30;;;4.60;99.90;;;;;;5034139;28;20429;-67
2022/02/06 15:38:09;;;;;;;0.38;0.38;;;4.80;99.90;;;;;;5033984;28;20174;-67
2022/02/06 15:40:38;;;;;;;0.32;0.32;;;4.90;99.90;;;;;;5033583;28;20279;-68
2022/02/06 15:43:04;;;;;;;0.40;0.40;;;4.90;99.90;;;;;;5033988;28;20205;-68
2022/02/06 15:45:30;;;;;;;0.35;0.35;;;4.70;99.90;;;;;;5033758;28;20195;-67
2022/02/06 15:47:56;;;;;;;0.30;0.30;;;4.40;99.90;;;;;;5033728;28;20258;-67
2022/02/06 15:50:21;;;;;;;0.40;0.40;;;4.50;99.90;;;;;;5033983;28;20621;-67
2022/02/06 15:52:47;;;;;;;0.40;0.40;;;4.60;99.90;;;;;;5033718;28;20728;-68
2022/02/06 15:55:13;;;;;;;0.40;0.40;;;4.90;99.90;;;;;;5033666;28;20217;-67